sensor_id;sensor_type;location;lat;lon;timestamp;temperature;humidity
74946;HTU21D;63509;45.250;38.102;2023-02-04T00:01:24;3.59;80.01
74946;HTU21D;63509;45.250;38.102;2023-02-04T00:03:50;3.56;79.92
74946;HTU21D;63509;45.250;38.102;2023-02-04T00:06:17;3.55;79.91
74946;HTU21D;63509;45.250;38.102;2023-02-04T00:08:43;3.54;79.88
74946;HTU21D;63509;45.250;38.102;2023-02-04T00:11:09;3.55;79.79
74946;HTU21D;63509;45.250;38.102;2023-02-04T00:13:35;3.53;79.72
74946;HTU21D;63509;45.250;38.102;2023-02-04T00:16:01;3.50;79.66
74946;HTU21D;63509;45.250;38.102;2023-02-04T00:18:27;3.47;79.61
74946;HTU21D;63509;45.250;38.102;2023-02-04T00:20:54;3.43;79.56
74946;HTU21D;63509;45.250;38.102;2023-02-04T00:23:20;3.41;79.51
74946;HTU21D;63509;45.250;38.102;2023-02-04T00:25:46;3.40;79.46
74946;HTU21D;63509;45.250;38.102;2023-02-04T00:28:11;3.36;79.43
74946;HTU21D;63509;45.250;38.102;2023-02-04T00:30:37;3.35;79.44
74946;HTU21D;63509;45.250;38.102;2023-02-04T00:33:03;3.33;79.48
74946;HTU21D;63509;45.250;38.102;2023-02-04T00:35:30;3.32;79.51
74946;HTU21D;63509;45.250;38.102;2023-02-04T00:37:55;3.31;79.53
74946;HTU21D;63509;45.250;38.102;2023-02-04T00:40:22;3.30;79.52
74946;HTU21D;63509;45.250;38.102;2023-02-04T00:42:47;3.29;79.55
74946;HTU21D;63509;45.250;38.102;2023-02-04T00:45:13;3.28;79.61
74946;HTU21D;63509;45.250;38.102;2023-02-04T00:47:39;3.27;79.65
74946;HTU21D;63509;45.250;38.102;2023-02-04T00:50:06;3.28;79.65
74946;HTU21D;63509;45.250;38.102;2023-02-04T00:52:32;3.29;79.68
74946;HTU21D;63509;45.250;38.102;2023-02-04T00:54:58;3.30;79.69
74946;HTU21D;63509;45.250;38.102;2023-02-04T00:57:24;3.31;79.66
74946;HTU21D;63509;45.250;38.102;2023-02-04T00:59:50;3.32;79.62
74946;HTU21D;63509;45.250;38.102;2023-02-04T01:02:16;3.33;79.53
74946;HTU21D;63509;45.250;38.102;2023-02-04T01:04:42;3.33;79.46
74946;HTU21D;63509;45.250;38.102;2023-02-04T01:07:08;3.31;79.39
74946;HTU21D;63509;45.250;38.102;2023-02-04T01:09:34;3.28;79.35
74946;HTU21D;63509;45.250;38.102;2023-02-04T01:12:00;3.25;79.31
74946;HTU21D;63509;45.250;38.102;2023-02-04T01:14:26;3.23;79.28
74946;HTU21D;63509;45.250;38.102;2023-02-04T01:16:52;3.19;79.26
74946;HTU21D;63509;45.250;38.102;2023-02-04T01:19:18;3.16;79.26
74946;HTU21D;63509;45.250;38.102;2023-02-04T01:21:45;3.14;79.24
74946;HTU21D;63509;45.250;38.102;2023-02-04T01:24:12;3.12;79.22
74946;HTU21D;63509;45.250;38.102;2023-02-04T01:27:13;3.08;79.19
74946;HTU21D;63509;45.250;38.102;2023-02-04T01:29:40;3.04;79.16
74946;HTU21D;63509;45.250;38.102;2023-02-04T01:32:06;3.02;79.15
74946;HTU21D;63509;45.250;38.102;2023-02-04T01:34:32;3.01;79.12
74946;HTU21D;63509;45.250;38.102;2023-02-04T01:36:58;2.98;79.08
74946;HTU21D;63509;45.250;38.102;2023-02-04T01:39:24;2.94;79.00
74946;HTU21D;63509;45.250;38.102;2023-02-04T01:41:50;2.90;78.97
74946;HTU21D;63509;45.250;38.102;2023-02-04T01:44:16;2.86;78.93
74946;HTU21D;63509;45.250;38.102;2023-02-04T01:46:42;2.83;78.88
74946;HTU21D;63509;45.250;38.102;2023-02-04T01:49:08;2.80;78.85
74946;HTU21D;63509;45.250;38.102;2023-02-04T01:51:34;2.74;78.81
74946;HTU21D;63509;45.250;38.102;2023-02-04T01:54:02;2.68;78.82
74946;HTU21D;63509;45.250;38.102;2023-02-04T01:56:30;2.64;78.80
74946;HTU21D;63509;45.250;38.102;2023-02-04T01:58:57;2.58;78.79
74946;HTU21D;63509;45.250;38.102;2023-02-04T02:01:36;2.55;78.75
74946;HTU21D;63509;45.250;38.102;2023-02-04T02:04:04;2.49;78.71
74946;HTU21D;63509;45.250;38.102;2023-02-04T02:06:32;2.41;78.66
74946;HTU21D;63509;45.250;38.102;2023-02-04T02:08:59;2.34;78.63
74946;HTU21D;63509;45.250;38.102;2023-02-04T02:11:25;2.25;78.66
74946;HTU21D;63509;45.250;38.102;2023-02-04T02:13:52;2.16;78.73
74946;HTU21D;63509;45.250;38.102;2023-02-04T02:16:18;2.09;78.79
74946;HTU21D;63509;45.250;38.102;2023-02-04T02:18:44;2.05;78.85
74946;HTU21D;63509;45.250;38.102;2023-02-04T02:21:13;2.00;78.88
74946;HTU21D;63509;45.250;38.102;2023-02-04T02:23:48;1.98;78.87
74946;HTU21D;63509;45.250;38.102;2023-02-04T02:26:16;1.98;78.82
74946;HTU21D;63509;45.250;38.102;2023-02-04T02:28:43;1.94;78.82
74946;HTU21D;63509;45.250;38.102;2023-02-04T02:31:10;1.93;78.82
74946;HTU21D;63509;45.250;38.102;2023-02-04T02:33:36;1.91;78.79
74946;HTU21D;63509;45.250;38.102;2023-02-04T02:36:02;1.86;78.77
74946;HTU21D;63509;45.250;38.102;2023-02-04T02:38:28;1.84;78.75
74946;HTU21D;63509;45.250;38.102;2023-02-04T02:40:55;1.81;78.79
74946;HTU21D;63509;45.250;38.102;2023-02-04T02:43:23;1.81;78.75
74946;HTU21D;63509;45.250;38.102;2023-02-04T02:45:50;1.82;78.74
74946;HTU21D;63509;45.250;38.102;2023-02-04T02:48:16;1.82;78.73
74946;HTU21D;63509;45.250;38.102;2023-02-04T02:50:43;1.82;78.71
74946;HTU21D;63509;45.250;38.102;2023-02-04T02:53:12;1.81;78.69
74946;HTU21D;63509;45.250;38.102;2023-02-04T02:55:39;1.76;78.72
74946;HTU21D;63509;45.250;38.102;2023-02-04T02:58:23;1.70;78.79
74946;HTU21D;63509;45.250;38.102;2023-02-04T03:00:50;1.68;78.84
74946;HTU21D;63509;45.250;38.102;2023-02-04T03:03:20;1.63;78.91
74946;HTU21D;63509;45.250;38.102;2023-02-04T03:05:52;1.63;78.96
74946;HTU21D;63509;45.250;38.102;2023-02-04T03:08:20;1.64;78.95
74946;HTU21D;63509;45.250;38.102;2023-02-04T03:10:46;1.65;78.95
74946;HTU21D;63509;45.250;38.102;2023-02-04T03:13:14;1.69;78.98
74946;HTU21D;63509;45.250;38.102;2023-02-04T03:15:42;1.72;78.98
74946;HTU21D;63509;45.250;38.102;2023-02-04T03:18:10;1.73;78.96
74946;HTU21D;63509;45.250;38.102;2023-02-04T03:20:37;1.73;78.97
74946;HTU21D;63509;45.250;38.102;2023-02-04T03:23:03;1.71;79.04
74946;HTU21D;63509;45.250;38.102;2023-02-04T03:25:29;1.72;79.06
74946;HTU21D;63509;45.250;38.102;2023-02-04T03:27:57;1.72;79.08
74946;HTU21D;63509;45.250;38.102;2023-02-04T03:30:24;1.73;79.10
74946;HTU21D;63509;45.250;38.102;2023-02-04T03:32:51;1.72;79.14
74946;HTU21D;63509;45.250;38.102;2023-02-04T03:35:18;1.73;79.17
74946;HTU21D;63509;45.250;38.102;2023-02-04T03:37:44;1.76;79.21
74946;HTU21D;63509;45.250;38.102;2023-02-04T03:40:11;1.77;79.22
74946;HTU21D;63509;45.250;38.102;2023-02-04T03:42:37;1.81;79.24
74946;HTU21D;63509;45.250;38.102;2023-02-04T03:45:04;1.83;79.26
74946;HTU21D;63509;45.250;38.102;2023-02-04T03:47:30;1.85;79.17
74946;HTU21D;63509;45.250;38.102;2023-02-04T03:49:56;1.88;79.19
74946;HTU21D;63509;45.250;38.102;2023-02-04T03:52:22;1.87;79.23
74946;HTU21D;63509;45.250;38.102;2023-02-04T03:54:48;1.90;79.22
74946;HTU21D;63509;45.250;38.102;2023-02-04T03:57:14;1.90;79.22
74946;HTU21D;63509;45.250;38.102;2023-02-04T03:59:43;1.91;79.27
74946;HTU21D;63509;45.250;38.102;2023-02-04T04:02:09;1.92;79.22
74946;HTU21D;63509;45.250;38.102;2023-02-04T04:04:35;1.96;79.22
74946;HTU21D;63509;45.250;38.102;2023-02-04T04:07:01;2.01;79.19
74946;HTU21D;63509;45.250;38.102;2023-02-04T04:09:27;2.02;79.21
74946;HTU21D;63509;45.250;38.102;2023-02-04T04:11:54;2.06;79.21
74946;HTU21D;63509;45.250;38.102;2023-02-04T04:14:20;2.07;79.14
74946;HTU21D;63509;45.250;38.102;2023-02-04T04:16:46;2.09;79.14
74946;HTU21D;63509;45.250;38.102;2023-02-04T04:19:12;2.10;79.12
74946;HTU21D;63509;45.250;38.102;2023-02-04T04:21:38;2.10;79.13
74946;HTU21D;63509;45.250;38.102;2023-02-04T04:24:04;2.10;79.18
74946;HTU21D;63509;45.250;38.102;2023-02-04T04:26:30;2.10;79.19
74946;HTU21D;63509;45.250;38.102;2023-02-04T04:28:56;2.10;79.27
74946;HTU21D;63509;45.250;38.102;2023-02-04T04:31:22;2.12;79.28
74946;HTU21D;63509;45.250;38.102;2023-02-04T04:33:48;2.16;79.30
74946;HTU21D;63509;45.250;38.102;2023-02-04T04:36:14;2.16;79.27
74946;HTU21D;63509;45.250;38.102;2023-02-04T04:38:39;2.17;79.28
74946;HTU21D;63509;45.250;38.102;2023-02-04T04:41:06;2.21;79.33
74946;HTU21D;63509;45.250;38.102;2023-02-04T04:43:31;2.23;79.30
74946;HTU21D;63509;45.250;38.102;2023-02-04T04:45:57;2.27;79.28
74946;HTU21D;63509;45.250;38.102;2023-02-04T04:48:23;2.29;79.30
74946;HTU21D;63509;45.250;38.102;2023-02-04T04:50:50;2.32;79.33
74946;HTU21D;63509;45.250;38.102;2023-02-04T04:53:16;2.35;79.33
74946;HTU21D;63509;45.250;38.102;2023-02-04T04:55:42;2.38;79.33
74946;HTU21D;63509;45.250;38.102;2023-02-04T04:58:08;2.39;79.33
74946;HTU21D;63509;45.250;38.102;2023-02-04T05:00:34;2.40;79.32
74946;HTU21D;63509;45.250;38.102;2023-02-04T05:03:00;2.42;79.34
74946;HTU21D;63509;45.250;38.102;2023-02-04T05:05:26;2.44;79.37
74946;HTU21D;63509;45.250;38.102;2023-02-04T05:07:52;2.46;79.37
74946;HTU21D;63509;45.250;38.102;2023-02-04T05:10:19;2.46;79.43
74946;HTU21D;63509;45.250;38.102;2023-02-04T05:12:45;2.49;79.44
74946;HTU21D;63509;45.250;38.102;2023-02-04T05:15:11;2.50;79.40
74946;HTU21D;63509;45.250;38.102;2023-02-04T05:17:37;2.53;79.46
74946;HTU21D;63509;45.250;38.102;2023-02-04T05:20:04;2.53;79.52
74946;HTU21D;63509;45.250;38.102;2023-02-04T05:22:30;2.57;79.53
74946;HTU21D;63509;45.250;38.102;2023-02-04T05:24:56;2.60;79.58
74946;HTU21D;63509;45.250;38.102;2023-02-04T05:27:22;2.62;79.56
74946;HTU21D;63509;45.250;38.102;2023-02-04T05:29:48;2.67;79.57
74946;HTU21D;63509;45.250;38.102;2023-02-04T05:32:14;2.68;79.50
74946;HTU21D;63509;45.250;38.102;2023-02-04T05:34:40;2.73;79.48
74946;HTU21D;63509;45.250;38.102;2023-02-04T05:37:06;2.75;79.46
74946;HTU21D;63509;45.250;38.102;2023-02-04T05:39:32;2.79;79.46
74946;HTU21D;63509;45.250;38.102;2023-02-04T05:41:57;2.80;79.48
74946;HTU21D;63509;45.250;38.102;2023-02-04T05:44:24;2.84;79.52
74946;HTU21D;63509;45.250;38.102;2023-02-04T05:46:50;2.87;79.53
74946;HTU21D;63509;45.250;38.102;2023-02-04T05:49:16;2.89;79.56
74946;HTU21D;63509;45.250;38.102;2023-02-04T05:51:41;2.95;79.58
74946;HTU21D;63509;45.250;38.102;2023-02-04T05:54:07;2.99;79.65
74946;HTU21D;63509;45.250;38.102;2023-02-04T05:56:33;3.05;79.72
74946;HTU21D;63509;45.250;38.102;2023-02-04T05:58:59;3.11;79.82
74946;HTU21D;63509;45.250;38.102;2023-02-04T06:01:25;3.18;79.85
74946;HTU21D;63509;45.250;38.102;2023-02-04T06:03:51;3.26;79.91
74946;HTU21D;63509;45.250;38.102;2023-02-04T06:06:17;3.34;79.99
74946;HTU21D;63509;45.250;38.102;2023-02-04T06:08:43;3.43;80.06
74946;HTU21D;63509;45.250;38.102;2023-02-04T06:11:09;3.52;80.18
74946;HTU21D;63509;45.250;38.102;2023-02-04T06:13:35;3.61;80.17
74946;HTU21D;63509;45.250;38.102;2023-02-04T06:16:01;3.72;80.35
74946;HTU21D;63509;45.250;38.102;2023-02-04T06:18:27;3.84;80.41
74946;HTU21D;63509;45.250;38.102;2023-02-04T06:20:53;3.98;80.52
74946;HTU21D;63509;45.250;38.102;2023-02-04T06:23:19;4.15;80.60
74946;HTU21D;63509;45.250;38.102;2023-02-04T06:25:45;4.30;80.74
74946;HTU21D;63509;45.250;38.102;2023-02-04T06:28:13;4.45;80.80
74946;HTU21D;63509;45.250;38.102;2023-02-04T06:30:39;4.60;80.91
74946;HTU21D;63509;45.250;38.102;2023-02-04T06:33:05;4.74;81.04
74946;HTU21D;63509;45.250;38.102;2023-02-04T06:35:31;4.84;81.07
74946;HTU21D;63509;45.250;38.102;2023-02-04T06:37:57;4.95;81.17
74946;HTU21D;63509;45.250;38.102;2023-02-04T06:40:23;5.05;81.27
74946;HTU21D;63509;45.250;38.102;2023-02-04T06:42:49;5.11;81.27
74946;HTU21D;63509;45.250;38.102;2023-02-04T06:45:15;5.21;81.35
74946;HTU21D;63509;45.250;38.102;2023-02-04T06:47:41;5.34;81.44
74946;HTU21D;63509;45.250;38.102;2023-02-04T06:50:08;5.50;81.56
74946;HTU21D;63509;45.250;38.102;2023-02-04T06:52:35;5.70;81.72
74946;HTU21D;63509;45.250;38.102;2023-02-04T06:55:01;5.93;81.79
74946;HTU21D;63509;45.250;38.102;2023-02-04T06:57:28;6.13;81.91
74946;HTU21D;63509;45.250;38.102;2023-02-04T06:59:53;6.36;82.06
74946;HTU21D;63509;45.250;38.102;2023-02-04T07:02:19;6.54;82.11
74946;HTU21D;63509;45.250;38.102;2023-02-04T07:04:45;6.72;82.09
74946;HTU21D;63509;45.250;38.102;2023-02-04T07:07:12;6.84;81.98
74946;HTU21D;63509;45.250;38.102;2023-02-04T07:09:37;6.94;82.00
74946;HTU21D;63509;45.250;38.102;2023-02-04T07:12:05;7.00;81.78
74946;HTU21D;63509;45.250;38.102;2023-02-04T07:14:31;7.07;81.51
74946;HTU21D;63509;45.250;38.102;2023-02-04T07:16:57;7.10;81.40
74946;HTU21D;63509;45.250;38.102;2023-02-04T07:19:24;7.12;81.22
74946;HTU21D;63509;45.250;38.102;2023-02-04T07:21:50;7.19;81.02
74946;HTU21D;63509;45.250;38.102;2023-02-04T07:24:19;7.30;81.01
74946;HTU21D;63509;45.250;38.102;2023-02-04T07:26:46;7.42;81.16
74946;HTU21D;63509;45.250;38.102;2023-02-04T07:29:12;7.55;81.30
74946;HTU21D;63509;45.250;38.102;2023-02-04T07:31:38;7.64;81.20
74946;HTU21D;63509;45.250;38.102;2023-02-04T07:34:04;7.70;80.75
74946;HTU21D;63509;45.250;38.102;2023-02-04T07:36:29;7.72;80.65
74946;HTU21D;63509;45.250;38.102;2023-02-04T07:38:55;7.79;80.71
74946;HTU21D;63509;45.250;38.102;2023-02-04T07:41:22;7.96;80.88
74946;HTU21D;63509;45.250;38.102;2023-02-04T07:43:48;8.12;80.96
74946;HTU21D;63509;45.250;38.102;2023-02-04T07:46:14;8.24;80.86
74946;HTU21D;63509;45.250;38.102;2023-02-04T07:48:40;8.31;80.70
74946;HTU21D;63509;45.250;38.102;2023-02-04T07:51:06;8.34;80.41
74946;HTU21D;63509;45.250;38.102;2023-02-04T07:53:32;8.32;79.99
74946;HTU21D;63509;45.250;38.102;2023-02-04T07:55:58;8.26;79.69
74946;HTU21D;63509;45.250;38.102;2023-02-04T07:58:25;8.18;79.47
74946;HTU21D;63509;45.250;38.102;2023-02-04T08:00:51;8.08;79.11
74946;HTU21D;63509;45.250;38.102;2023-02-04T08:03:17;7.98;78.95
74946;HTU21D;63509;45.250;38.102;2023-02-04T08:05:43;7.86;78.88
74946;HTU21D;63509;45.250;38.102;2023-02-04T08:08:09;7.75;78.71
74946;HTU21D;63509;45.250;38.102;2023-02-04T08:10:35;7.67;78.89
74946;HTU21D;63509;45.250;38.102;2023-02-04T08:13:01;7.61;79.14
74946;HTU21D;63509;45.250;38.102;2023-02-04T08:15:27;7.69;79.52
74946;HTU21D;63509;45.250;38.102;2023-02-04T08:17:53;7.84;79.74
74946;HTU21D;63509;45.250;38.102;2023-02-04T08:20:19;7.99;79.86
74946;HTU21D;63509;45.250;38.102;2023-02-04T08:22:45;8.16;79.85
74946;HTU21D;63509;45.250;38.102;2023-02-04T08:25:11;8.28;79.88
74946;HTU21D;63509;45.250;38.102;2023-02-04T08:27:38;8.42;79.76
74946;HTU21D;63509;45.250;38.102;2023-02-04T08:30:04;8.53;79.61
74946;HTU21D;63509;45.250;38.102;2023-02-04T08:32:31;8.67;79.58
74946;HTU21D;63509;45.250;38.102;2023-02-04T08:34:57;8.80;79.87
74946;HTU21D;63509;45.250;38.102;2023-02-04T08:37:24;8.97;79.69
74946;HTU21D;63509;45.250;38.102;2023-02-04T08:39:50;9.10;79.54
74946;HTU21D;63509;45.250;38.102;2023-02-04T08:42:16;9.21;79.49
74946;HTU21D;63509;45.250;38.102;2023-02-04T08:44:42;9.37;79.49
74946;HTU21D;63509;45.250;38.102;2023-02-04T08:47:09;9.51;79.30
74946;HTU21D;63509;45.250;38.102;2023-02-04T08:49:35;9.61;78.98
74946;HTU21D;63509;45.250;38.102;2023-02-04T08:52:02;9.61;78.54
74946;HTU21D;63509;45.250;38.102;2023-02-04T08:54:29;9.55;78.01
74946;HTU21D;63509;45.250;38.102;2023-02-04T08:56:55;9.48;77.60
74946;HTU21D;63509;45.250;38.102;2023-02-04T08:59:20;9.36;77.33
74946;HTU21D;63509;45.250;38.102;2023-02-04T09:01:49;9.24;77.15
74946;HTU21D;63509;45.250;38.102;2023-02-04T09:04:18;9.11;76.94
74946;HTU21D;63509;45.250;38.102;2023-02-04T09:06:44;9.02;76.92
74946;HTU21D;63509;45.250;38.102;2023-02-04T09:09:11;8.91;76.89
74946;HTU21D;63509;45.250;38.102;2023-02-04T09:11:38;8.83;77.02
74946;HTU21D;63509;45.250;38.102;2023-02-04T09:14:04;8.74;77.05
74946;HTU21D;63509;45.250;38.102;2023-02-04T09:16:30;8.67;77.18
74946;HTU21D;63509;45.250;38.102;2023-02-04T09:18:56;8.62;77.13
74946;HTU21D;63509;45.250;38.102;2023-02-04T09:21:27;8.56;77.15
74946;HTU21D;63509;45.250;38.102;2023-02-04T09:23:54;8.50;77.31
74946;HTU21D;63509;45.250;38.102;2023-02-04T09:26:20;8.50;77.49
74946;HTU21D;63509;45.250;38.102;2023-02-04T09:28:46;8.55;77.66
74946;HTU21D;63509;45.250;38.102;2023-02-04T09:31:13;8.64;78.08
74946;HTU21D;63509;45.250;38.102;2023-02-04T09:33:40;8.79;78.16
74946;HTU21D;63509;45.250;38.102;2023-02-04T09:36:07;8.94;78.20
74946;HTU21D;63509;45.250;38.102;2023-02-04T09:38:33;9.08;78.37
74946;HTU21D;63509;45.250;38.102;2023-02-04T09:41:02;9.23;78.14
74946;HTU21D;63509;45.250;38.102;2023-02-04T09:43:31;9.40;78.32
74946;HTU21D;63509;45.250;38.102;2023-02-04T09:45:59;9.61;78.37
74946;HTU21D;63509;45.250;38.102;2023-02-04T09:48:25;9.79;78.24
74946;HTU21D;63509;45.250;38.102;2023-02-04T09:50:52;9.91;77.70
74946;HTU21D;63509;45.250;38.102;2023-02-04T09:53:24;9.97;77.37
74946;HTU21D;63509;45.250;38.102;2023-02-04T09:55:51;9.97;77.01
74946;HTU21D;63509;45.250;38.102;2023-02-04T09:58:19;9.93;76.13
74946;HTU21D;63509;45.250;38.102;2023-02-04T10:00:47;9.89;75.84
74946;HTU21D;63509;45.250;38.102;2023-02-04T10:03:18;9.83;75.50
74946;HTU21D;63509;45.250;38.102;2023-02-04T10:05:47;9.84;75.36
74946;HTU21D;63509;45.250;38.102;2023-02-04T10:08:34;9.86;75.33
74946;HTU21D;63509;45.250;38.102;2023-02-04T10:11:00;9.89;75.15
74946;HTU21D;63509;45.250;38.102;2023-02-04T10:13:32;9.97;75.60
74946;HTU21D;63509;45.250;38.102;2023-02-04T10:16:11;10.14;75.80
74946;HTU21D;63509;45.250;38.102;2023-02-04T10:18:38;10.26;75.33
74946;HTU21D;63509;45.250;38.102;2023-02-04T10:21:12;10.31;74.97
74946;HTU21D;63509;45.250;38.102;2023-02-04T10:23:39;10.30;74.51
74946;HTU21D;63509;45.250;38.102;2023-02-04T10:26:08;10.29;74.58
74946;HTU21D;63509;45.250;38.102;2023-02-04T10:28:35;10.31;74.54
74946;HTU21D;63509;45.250;38.102;2023-02-04T10:31:02;10.36;74.67
74946;HTU21D;63509;45.250;38.102;2023-02-04T10:33:28;10.43;74.16
74946;HTU21D;63509;45.250;38.102;2023-02-04T10:35:57;10.54;74.02
74946;HTU21D;63509;45.250;38.102;2023-02-04T10:38:23;10.64;74.02
74946;HTU21D;63509;45.250;38.102;2023-02-04T10:41:03;10.72;74.15
74946;HTU21D;63509;45.250;38.102;2023-02-04T10:43:30;10.78;73.69
74946;HTU21D;63509;45.250;38.102;2023-02-04T10:46:00;10.82;73.05
74946;HTU21D;63509;45.250;38.102;2023-02-04T10:48:26;10.83;73.20
74946;HTU21D;63509;45.250;38.102;2023-02-04T10:50:56;10.86;73.01
74946;HTU21D;63509;45.250;38.102;2023-02-04T10:53:23;10.89;73.02
74946;HTU21D;63509;45.250;38.102;2023-02-04T10:56:17;10.93;72.85
74946;HTU21D;63509;45.250;38.102;2023-02-04T10:58:44;10.93;72.79
74946;HTU21D;63509;45.250;38.102;2023-02-04T11:01:12;10.97;72.76
74946;HTU21D;63509;45.250;38.102;2023-02-04T11:03:40;10.99;72.79
74946;HTU21D;63509;45.250;38.102;2023-02-04T11:06:12;11.04;72.71
74946;HTU21D;63509;45.250;38.102;2023-02-04T11:08:39;11.08;72.60
74946;HTU21D;63509;45.250;38.102;2023-02-04T11:11:11;11.12;72.41
74946;HTU21D;63509;45.250;38.102;2023-02-04T11:13:42;11.13;71.91
74946;HTU21D;63509;45.250;38.102;2023-02-04T11:18:47;11.16;71.09
74946;HTU21D;63509;45.250;38.102;2023-02-04T11:26:46;11.19;71.19
74946;HTU21D;63509;45.250;38.102;2023-02-04T11:39:40;10.69;70.55
74946;HTU21D;63509;45.250;38.102;2023-02-04T11:42:21;10.59;70.77
74946;HTU21D;63509;45.250;38.102;2023-02-04T11:45:10;10.53;70.68
74946;HTU21D;63509;45.250;38.102;2023-02-04T11:47:37;10.43;70.77
74946;HTU21D;63509;45.250;38.102;2023-02-04T11:50:12;10.37;70.85
74946;HTU21D;63509;45.250;38.102;2023-02-04T11:52:39;10.28;70.46
74946;HTU21D;63509;45.250;38.102;2023-02-04T11:55:05;10.20;70.34
74946;HTU21D;63509;45.250;38.102;2023-02-04T11:57:42;10.10;70.23
74946;HTU21D;63509;45.250;38.102;2023-02-04T12:00:19;9.98;69.98
74946;HTU21D;63509;45.250;38.102;2023-02-04T12:02:49;9.88;69.81
74946;HTU21D;63509;45.250;38.102;2023-02-04T12:05:18;9.77;69.66
74946;HTU21D;63509;45.250;38.102;2023-02-04T12:07:47;9.65;69.56
74946;HTU21D;63509;45.250;38.102;2023-02-04T12:12:51;9.48;69.47
74946;HTU21D;63509;45.250;38.102;2023-02-04T12:15:22;9.41;69.34
74946;HTU21D;63509;45.250;38.102;2023-02-04T12:18:05;9.36;69.37
74946;HTU21D;63509;45.250;38.102;2023-02-04T12:20:33;9.26;68.98
74946;HTU21D;63509;45.250;38.102;2023-02-04T12:22:59;9.21;68.97
74946;HTU21D;63509;45.250;38.102;2023-02-04T12:25:25;9.19;68.97
74946;HTU21D;63509;45.250;38.102;2023-02-04T12:27:52;9.16;68.75
74946;HTU21D;63509;45.250;38.102;2023-02-04T12:30:22;9.12;68.62
74946;HTU21D;63509;45.250;38.102;2023-02-04T12:32:48;9.08;68.57
74946;HTU21D;63509;45.250;38.102;2023-02-04T12:35:15;9.05;68.49
74946;HTU21D;63509;45.250;38.102;2023-02-04T12:37:41;9.03;68.47
74946;HTU21D;63509;45.250;38.102;2023-02-04T12:40:09;8.98;68.47
74946;HTU21D;63509;45.250;38.102;2023-02-04T12:42:38;8.98;68.43
74946;HTU21D;63509;45.250;38.102;2023-02-04T12:45:04;8.97;68.40
74946;HTU21D;63509;45.250;38.102;2023-02-04T12:47:30;8.96;68.47
74946;HTU21D;63509;45.250;38.102;2023-02-04T12:49:56;9.00;68.36
74946;HTU21D;63509;45.250;38.102;2023-02-04T12:52:22;9.02;68.31
74946;HTU21D;63509;45.250;38.102;2023-02-04T12:54:49;9.03;68.30
74946;HTU21D;63509;45.250;38.102;2023-02-04T12:57:15;9.06;68.23
74946;HTU21D;63509;45.250;38.102;2023-02-04T12:59:46;9.06;68.09
74946;HTU21D;63509;45.250;38.102;2023-02-04T13:02:14;9.04;68.07
74946;HTU21D;63509;45.250;38.102;2023-02-04T13:04:40;9.01;68.02
74946;HTU21D;63509;45.250;38.102;2023-02-04T13:07:07;9.02;68.13
74946;HTU21D;63509;45.250;38.102;2023-02-04T13:09:34;9.03;67.95
74946;HTU21D;63509;45.250;38.102;2023-02-04T13:12:02;9.04;67.84
74946;HTU21D;63509;45.250;38.102;2023-02-04T13:14:28;9.02;67.88
74946;HTU21D;63509;45.250;38.102;2023-02-04T13:16:54;9.02;67.80
74946;HTU21D;63509;45.250;38.102;2023-02-04T13:19:20;8.95;67.68
74946;HTU21D;63509;45.250;38.102;2023-02-04T13:21:46;8.91;67.68
74946;HTU21D;63509;45.250;38.102;2023-02-04T13:24:12;8.85;67.65
74946;HTU21D;63509;45.250;38.102;2023-02-04T13:26:38;8.78;67.66
74946;HTU21D;63509;45.250;38.102;2023-02-04T13:29:03;8.77;67.58
74946;HTU21D;63509;45.250;38.102;2023-02-04T13:31:29;8.70;67.49
74946;HTU21D;63509;45.250;38.102;2023-02-04T13:33:55;8.64;67.48
74946;HTU21D;63509;45.250;38.102;2023-02-04T13:36:21;8.57;67.61
74946;HTU21D;63509;45.250;38.102;2023-02-04T13:38:47;8.53;67.60
74946;HTU21D;63509;45.250;38.102;2023-02-04T13:41:13;8.45;67.63
74946;HTU21D;63509;45.250;38.102;2023-02-04T13:43:39;8.43;67.74
74946;HTU21D;63509;45.250;38.102;2023-02-04T13:46:05;8.39;67.69
74946;HTU21D;63509;45.250;38.102;2023-02-04T13:48:31;8.35;67.67
74946;HTU21D;63509;45.250;38.102;2023-02-04T13:50:57;8.28;67.52
74946;HTU21D;63509;45.250;38.102;2023-02-04T13:53:23;8.19;67.58
74946;HTU21D;63509;45.250;38.102;2023-02-04T13:55:56;8.14;67.60
74946;HTU21D;63509;45.250;38.102;2023-02-04T13:58:23;8.06;67.68
74946;HTU21D;63509;45.250;38.102;2023-02-04T14:00:49;8.00;67.76
74946;HTU21D;63509;45.250;38.102;2023-02-04T14:03:15;7.96;67.74
74946;HTU21D;63509;45.250;38.102;2023-02-04T14:05:41;7.91;67.78
74946;HTU21D;63509;45.250;38.102;2023-02-04T14:08:07;7.86;67.71
74946;HTU21D;63509;45.250;38.102;2023-02-04T14:10:33;7.78;67.77
74946;HTU21D;63509;45.250;38.102;2023-02-04T14:12:59;7.73;67.81
74946;HTU21D;63509;45.250;38.102;2023-02-04T14:15:25;7.68;67.80
74946;HTU21D;63509;45.250;38.102;2023-02-04T14:17:51;7.60;67.92
74946;HTU21D;63509;45.250;38.102;2023-02-04T14:20:17;7.57;67.93
74946;HTU21D;63509;45.250;38.102;2023-02-04T14:22:43;7.54;67.94
74946;HTU21D;63509;45.250;38.102;2023-02-04T14:25:09;7.52;67.99
74946;HTU21D;63509;45.250;38.102;2023-02-04T14:27:35;7.48;68.05
74946;HTU21D;63509;45.250;38.102;2023-02-04T14:30:03;7.45;68.08
74946;HTU21D;63509;45.250;38.102;2023-02-04T14:32:30;7.44;68.10
74946;HTU21D;63509;45.250;38.102;2023-02-04T14:34:56;7.40;68.04
74946;HTU21D;63509;45.250;38.102;2023-02-04T14:37:22;7.35;68.15
74946;HTU21D;63509;45.250;38.102;2023-02-04T14:39:53;7.30;68.18
74946;HTU21D;63509;45.250;38.102;2023-02-04T14:42:18;7.24;68.23
74946;HTU21D;63509;45.250;38.102;2023-02-04T14:44:44;7.18;68.32
74946;HTU21D;63509;45.250;38.102;2023-02-04T14:47:10;7.14;68.40
74946;HTU21D;63509;45.250;38.102;2023-02-04T14:49:36;7.11;68.50
74946;HTU21D;63509;45.250;38.102;2023-02-04T14:52:02;7.10;68.57
74946;HTU21D;63509;45.250;38.102;2023-02-04T14:54:29;7.07;68.58
74946;HTU21D;63509;45.250;38.102;2023-02-04T14:56:55;6.99;68.59
74946;HTU21D;63509;45.250;38.102;2023-02-04T14:59:21;6.93;68.73
74946;HTU21D;63509;45.250;38.102;2023-02-04T15:01:47;6.87;68.82
74946;HTU21D;63509;45.250;38.102;2023-02-04T15:04:13;6.81;68.88
74946;HTU21D;63509;45.250;38.102;2023-02-04T15:06:38;6.73;68.98
74946;HTU21D;63509;45.250;38.102;2023-02-04T15:09:04;6.66;69.07
74946;HTU21D;63509;45.250;38.102;2023-02-04T15:11:30;6.61;69.16
74946;HTU21D;63509;45.250;38.102;2023-02-04T15:13:57;6.55;69.26
74946;HTU21D;63509;45.250;38.102;2023-02-04T15:16:23;6.51;69.33
74946;HTU21D;63509;45.250;38.102;2023-02-04T15:18:49;6.45;69.37
74946;HTU21D;63509;45.250;38.102;2023-02-04T15:21:15;6.40;69.41
74946;HTU21D;63509;45.250;38.102;2023-02-04T15:23:42;6.33;69.51
74946;HTU21D;63509;45.250;38.102;2023-02-04T15:26:09;6.27;69.59
74946;HTU21D;63509;45.250;38.102;2023-02-04T15:28:35;6.21;69.65
74946;HTU21D;63509;45.250;38.102;2023-02-04T15:31:01;6.15;69.77
74946;HTU21D;63509;45.250;38.102;2023-02-04T15:33:30;6.08;69.87
74946;HTU21D;63509;45.250;38.102;2023-02-04T15:35:56;5.99;69.97